Mauriceville, Texas
Current Conditions -  °F | °C
As of 2:35 AM on Friday 24 Oct 2014 (Local Time) from KORG Reporting Station
Clear Clear  
Wind Chill: 53°   Ceiling: Unl
Heat Index: 53°   Visibility: 10mi
Dew Point: 53°   Wind: 3mph
Humidity: 100%   Direction: 330°NNW
Pressure: 30.13"   Gusts: NA
Location:  30.2°N, 93.87°W
Report Text: KORG 240735Z AUTO 33003KT 10SM CLR 12/12 A3013 RMK AO2 T01160116
Loading
Personal Weather Stations






























Interactive Weather Map New forecast layout! Learn more

10-Day Weather Forecast

Advertisements
Track Severe Weather on mobile